Time;durP1;ratioP1;P1;durP2;ratioP2;P2;SDS_P1;SDS_P2;PMS_P1;PMS_P2;Temp;Humidity;BMP_temperature;BMP_pressure;BME280_temperature;BME280_humidity;BME280_pressure;Samples;Min_cycle;Max_cycle;Signal;HPM_P1;HPM_P2
2022/05/11 00:01:49;;;;;;;4.88;3.85;;;;;;;18.12;58.72;96821.84;10480639;28;20043;-22
2022/05/11 00:06:49;;;;;;;3.75;3.38;;;;;;;18.07;58.17;96821.00;10455223;28;20075;-23
2022/05/11 00:11:50;;;;;;;3.30;3.10;;;;;;;18.05;58.55;96815.06;10491566;28;20564;-21
2022/05/11 00:16:51;;;;;;;4.03;3.37;;;;;;;18.03;58.47;96811.69;10488613;28;20045;-24
2022/05/11 00:21:52;;;;;;;3.53;3.22;;;;;;;18.02;58.35;96812.53;10462609;28;20063;-22
2022/05/11 00:26:52;;;;;;;3.30;3.00;;;;;;;18.00;58.42;96804.91;10458172;28;20115;-22
2022/05/11 00:31:53;;;;;;;4.70;4.30;;;;;;;18.19;60.71;96809.22;10452125;28;20068;-24
2022/05/11 00:36:54;;;;;;;4.72;4.18;;;;;;;18.30;64.54;96801.66;10492408;28;20036;-22
2022/05/11 00:41:54;;;;;;;3.00;2.80;;;;;;;18.25;59.48;96804.13;10455559;28;20029;-22
2022/05/11 00:47:04;;;;;;;3.60;3.30;;;;;;;18.12;58.85;96807.50;10454390;28;20298;-21
2022/05/11 00:52:12;;;;;;;3.33;2.88;;;;;;;18.06;58.56;96796.47;10491080;28;20064;-22
2022/05/11 00:57:19;;;;;;;4.40;3.10;;;;;;;18.02;58.59;96799.88;10453019;28;20037;-21
2022/05/11 01:02:22;;;;;;;5.20;2.83;;;;;;;18.02;58.26;96794.81;10448606;28;20519;-21
2022/05/11 01:07:23;;;;;;;4.00;3.60;;;;;;;18.00;58.46;96791.44;10449135;28;20311;-22
2022/05/11 01:12:31;;;;;;;3.50;3.20;;;;;;;17.99;58.50;96790.56;10486848;28;20171;-22
2022/05/11 01:17:36;;;;;;;3.83;3.50;;;;;;;18.06;61.38;96794.81;10489470;28;20433;-21
2022/05/11 01:22:43;;;;;;;4.22;3.83;;;;;;;18.28;64.68;96783.03;10466211;28;20029;-22
2022/05/11 01:27:46;;;;;;;3.15;2.85;;;;;;;18.28;59.90;96785.56;10489640;28;20036;-21
2022/05/11 01:32:52;;;;;;;3.50;3.20;;;;;;;18.14;58.90;96789.75;10484321;28;20037;-22
2022/05/11 01:38:06;;;;;;;3.00;2.70;;;;;;;18.03;58.71;96787.22;10448937;28;20037;-21
2022/05/11 01:43:06;;;;;;;3.30;2.95;;;;;;;18.03;58.64;96793.97;10489939;28;20338;-23
2022/05/11 01:48:07;;;;;;;3.50;2.90;;;;;;;18.00;58.30;96786.34;10470565;28;20123;-22
2022/05/11 01:53:08;;;;;;;3.38;2.47;;;;;;;17.99;58.31;96779.59;10454831;28;20047;-21
2022/05/11 01:58:11;;;;;;;3.00;2.72;;;;;;;17.99;58.42;96784.66;10456087;28;20411;-23
2022/05/11 02:03:12;;;;;;;3.30;3.00;;;;;;;17.98;58.30;96781.28;10455071;28;20032;-22
2022/05/11 02:08:12;;;;;;;4.30;3.90;;;;;;;18.17;62.10;96784.72;10455613;28;20037;-22
2022/05/11 02:13:14;;;;;;;3.97;3.58;;;;;;;18.28;64.12;96783.03;10469098;28;20402;-22
2022/05/11 02:18:14;;;;;;;3.33;2.95;;;;;;;18.24;60.08;96783.88;10472741;28;20032;-22
2022/05/11 02:23:17;;;;;;;3.43;2.70;;;;;;;18.09;58.73;96768.66;10472530;28;20487;-22
2022/05/11 02:28:21;;;;;;;2.92;2.60;;;;;;;18.07;58.46;96767.81;10454721;28;20491;-22
2022/05/11 02:33:23;;;;;;;3.08;2.78;;;;;;;18.05;58.23;96774.53;10479485;28;20112;-21
2022/05/11 02:38:29;;;;;;;3.03;2.72;;;;;;;18.02;58.48;96774.53;10489802;28;20044;-22
2022/05/11 02:43:29;;;;;;;3.27;2.90;;;;;;;18.00;58.38;96766.09;10453552;28;20059;-21
2022/05/11 02:48:32;;;;;;;2.83;2.63;;;;;;;18.02;58.37;96769.47;10453412;28;20812;-22
2022/05/11 02:53:33;;;;;;;2.97;2.67;;;;;;;17.99;58.33;96769.47;10453046;28;20421;-21
2022/05/11 02:58:34;;;;;;;4.18;3.78;;;;;;;18.18;62.76;96772.03;10453666;28;20033;-23
2022/05/11 03:03:34;;;;;;;3.83;3.47;;;;;;;18.33;64.75;96776.34;10451353;28;20039;-23
2022/05/11 03:08:35;;;;;;;2.70;2.50;;;;;;;18.27;59.74;96768.69;10459457;28;20347;-22
2022/05/11 03:13:36;;;;;;;3.20;2.63;;;;;;;18.13;58.92;96760.19;10493656;28;20037;-21
2022/05/11 03:18:36;;;;;;;2.80;2.60;;;;;;;18.07;58.30;96767.81;10492626;28;20060;-22
2022/05/11 03:23:36;;;;;;;3.67;2.53;;;;;;;17.98;58.39;96752.59;10485570;28;20287;-22
2022/05/11 03:28:37;;;;;;;2.80;2.60;;;;;;;18.03;58.48;96761.03;10452313;28;20486;-22
2022/05/11 03:38:56;;;;;;;2.47;2.28;;;;;;;18.00;58.21;96753.44;10482393;28;20041;-22
2022/05/11 03:43:57;;;;;;;2.50;2.30;;;;;;;18.01;58.40;96752.59;10472474;28;20038;-22
2022/05/11 03:48:57;;;;;;;3.50;3.20;;;;;;;18.02;61.02;96744.13;10458057;28;20294;-23
2022/05/11 03:53:58;;;;;;;4.33;3.57;;;;;;;18.28;64.60;96758.56;10458023;28;20041;-23
2022/05/11 03:58:58;;;;;;;3.00;2.70;;;;;;;18.23;60.02;96744.16;10469582;28;20032;-23
2022/05/11 04:03:58;;;;;;;2.97;2.38;;;;;;;18.15;58.25;96761.06;10488942;28;20279;-21
2022/05/11 04:08:59;;;;;;;2.77;2.20;;;;;;;18.08;58.32;96764.44;10477645;28;20052;-24
2022/05/11 04:13:59;;;;;;;2.50;2.30;;;;;;;18.07;58.22;96757.66;10470265;28;20115;-23
2022/05/11 04:19:01;;;;;;;2.63;2.43;;;;;;;18.05;58.29;96756.81;10461590;28;20044;-23
2022/05/11 04:24:02;;;;;;;3.30;2.80;;;;;;;18.06;58.54;96755.94;10477831;28;20560;-23
2022/05/11 04:29:02;;;;;;;3.13;2.83;;;;;;;18.08;58.23;96759.34;10462971;28;20036;-23
2022/05/11 04:34:03;;;;;;;2.70;2.50;;;;;;;18.04;58.45;96755.97;10449387;28;20045;-23
2022/05/11 04:39:03;;;;;;;2.70;2.50;;;;;;;18.04;58.27;96762.72;10471198;28;20484;-24
2022/05/11 04:44:04;;;;;;;7.77;3.27;;;;;;;18.18;59.78;96758.53;10448839;28;20040;-24
2022/05/11 04:49:19;;;;;;;3.45;3.15;;;;;;;18.22;59.45;96755.13;10476981;28;20037;-23
2022/05/11 04:54:19;;;;;;;20.95;5.15;;;;;;;18.18;58.46;96761.06;10461371;28;20101;-23
2022/05/11 04:59:21;;;;;;;3.33;2.70;;;;;;;18.11;58.17;96754.28;10490915;28;20063;-24
2022/05/11 05:04:21;;;;;;;7.35;2.67;;;;;;;18.12;57.68;96759.38;10449245;28;20052;-24
2022/05/11 05:09:22;;;;;;;3.10;2.83;;;;;;;18.01;57.93;96753.41;10447684;28;20037;-24
2022/05/11 05:14:23;;;;;;;3.60;2.75;;;;;;;18.08;58.07;96759.34;10471959;28;20107;-23
2022/05/11 05:19:23;;;;;;;2.73;2.53;;;;;;;18.07;58.05;96765.28;10476114;28;20040;-23
2022/05/11 05:24:24;;;;;;;3.00;2.67;;;;;;;18.05;58.07;96772.00;10468356;28;20100;-23
2022/05/11 05:34:44;;;;;;;8.60;3.88;;;;;;;18.14;59.79;96780.47;10455663;28;20056;-22
2022/05/11 05:39:45;;;;;;;11.25;3.63;;;;;;;18.16;59.81;96783.03;10459248;28;20064;-23
2022/05/11 05:44:46;;;;;;;3.10;2.80;;;;;;;18.23;58.96;96780.50;10452836;28;20455;-23
2022/05/11 05:49:46;;;;;;;4.55;2.45;;;;;;;18.16;58.00;96778.78;10456085;28;20087;-24
2022/05/11 05:54:50;;;;;;;2.63;2.42;;;;;;;18.11;58.08;96769.50;10455611;28;20033;-23
2022/05/11 05:59:50;;;;;;;2.90;2.25;;;;;;;18.03;57.41;96766.09;10455941;28;20041;-23
2022/05/11 06:04:51;;;;;;;3.60;2.60;;;;;;;18.09;57.95;96771.19;10472445;28;20414;-23
2022/05/11 06:09:51;;;;;;;3.67;2.35;;;;;;;18.07;58.02;96762.75;10479062;28;20086;-23
2022/05/11 06:14:52;;;;;;;2.43;2.23;;;;;;;18.06;58.04;96766.09;10482164;28;20032;-24
2022/05/11 06:19:53;;;;;;;3.00;2.20;;;;;;;18.05;57.99;96770.31;10462702;28;20546;-24
2022/05/11 06:24:53;;;;;;;3.05;2.33;;;;;;;18.06;58.24;96771.16;10472515;28;20287;-23
2022/05/11 06:29:56;;;;;;;4.10;3.17;;;;;;;18.16;61.87;96762.75;10454729;28;20434;-23
2022/05/11 06:34:56;;;;;;;5.63;3.60;;;;;;;18.31;62.33;96758.56;10453885;28;20037;-22
2022/05/11 06:39:58;;;;;;;2.93;2.70;;;;;;;18.31;58.86;96756.03;10453973;28;20402;-22
2022/05/11 06:44:59;;;;;;;2.72;2.50;;;;;;;18.19;58.30;96752.63;10453238;28;20112;-23
2022/05/11 06:50:00;;;;;;;2.95;2.65;;;;;;;18.13;58.29;96747.53;10453719;28;20124;-23
2022/05/11 07:00:20;;;;;;;2.70;2.50;;;;;;;18.07;58.12;96743.28;10495027;28;20032;-23
2022/05/11 07:05:20;;;;;;;2.67;2.40;;;;;;;18.05;58.17;96739.06;10465132;28;20033;-23
2022/05/11 07:10:21;;;;;;;2.40;2.20;;;;;;;18.03;58.19;96734.00;10453030;28;20291;-23
2022/05/11 07:15:22;;;;;;;3.35;2.40;;;;;;;18.04;58.23;96735.69;10483734;28;20090;-23
2022/05/11 07:20:30;;;;;;;2.58;2.38;;;;;;;18.02;58.16;96726.41;10459620;28;20403;-23
2022/05/11 07:25:31;;;;;;;4.20;3.80;;;;;;;18.15;60.44;96725.59;10467977;28;20518;-24
2022/05/11 07:30:34;;;;;;;2.67;2.47;;;;;;;18.30;63.03;96715.47;10452335;28;20295;-23
2022/05/11 07:35:35;;;;;;;3.10;2.80;;;;;;;18.28;59.54;96719.69;10451375;28;20047;-24
2022/05/11 07:40:35;;;;;;;2.42;2.22;;;;;;;18.17;58.34;96718.84;10451245;28;20033;-24
2022/05/11 07:45:37;;;;;;;2.67;2.47;;;;;;;18.11;58.20;96718.81;10451100;28;20045;-23
2022/05/11 07:50:38;;;;;;;2.92;2.63;;;;;;;18.09;58.31;96712.91;10450362;28;20064;-24
2022/05/11 07:55:38;;;;;;;2.30;2.10;;;;;;;18.07;58.45;96717.13;10450577;28;20065;-24
2022/05/11 08:00:38;;;;;;;2.17;2.00;;;;;;;18.08;58.52;96717.13;10450832;28;20036;-23
2022/05/11 08:05:39;;;;;;;2.37;2.17;;;;;;;18.08;58.35;96716.28;10450283;28;20288;-23
2022/05/11 08:10:43;;;;;;;2.83;2.63;;;;;;;18.08;58.40;96718.81;10449988;28;20295;-23
2022/05/11 08:15:47;;;;;;;3.10;2.80;;;;;;;18.04;58.41;96712.91;10454206;28;20076;-23
2022/05/11 08:20:47;;;;;;;4.28;2.63;;;;;;;18.22;60.98;96719.66;10452345;28;20040;-23
2022/05/11 08:25:51;;;;;;;3.65;2.70;;;;;;;18.36;63.41;96718.03;10455420;28;20033;-23
2022/05/11 08:36:13;;;;;;;2.50;2.30;;;;;;;18.23;58.70;96703.59;10449077;28;20543;-23
2022/05/11 08:41:47;;;;;;;2.50;2.30;;;;;;;18.16;58.51;96701.94;10449623;28;20116;-23
2022/05/11 08:47:03;;;;;;;2.33;2.13;;;;;;;18.13;58.57;96701.91;10449456;28;20148;-23
2022/05/11 08:52:10;;;;;;;3.15;2.50;;;;;;;18.09;58.33;96703.59;10448996;28;20541;-24
2022/05/11 08:57:15;;;;;;;2.72;2.53;;;;;;;18.09;58.29;96705.31;10484944;28;20045;-23
2022/05/11 09:02:21;;;;;;;3.28;2.95;;;;;;;18.07;58.45;96712.06;10496193;28;20483;-23
2022/05/11 09:07:22;;;;;;;2.53;2.33;;;;;;;18.09;58.15;96705.31;10457509;28;20036;-24
2022/05/11 09:12:23;;;;;;;2.42;2.22;;;;;;;18.07;58.45;96695.16;10494174;28;20495;-23
2022/05/11 09:17:27;;;;;;;3.38;2.75;;;;;;;18.19;62.47;96694.34;10497658;28;20110;-23
2022/05/11 09:22:30;;;;;;;3.40;3.10;;;;;;;18.35;63.61;96699.44;10498452;28;20133;-24
2022/05/11 09:27:34;;;;;;;2.50;2.30;;;;;;;18.38;59.61;96688.44;10458874;28;20033;-25
2022/05/11 09:32:39;;;;;;;2.30;2.13;;;;;;;18.23;58.85;96686.72;10469728;28;20043;-24
2022/05/11 09:37:42;;;;;;;2.58;2.38;;;;;;;18.16;58.39;96686.75;10498684;28;20032;-23
2022/05/11 09:42:57;;;;;;;2.63;2.42;;;;;;;18.11;58.52;96683.34;10456910;28;20063;-23
2022/05/11 09:48:03;;;;;;;3.33;2.60;;;;;;;18.09;58.53;96690.09;10470310;28;20047;-24
2022/05/11 09:53:22;;;;;;;2.63;2.43;;;;;;;18.10;58.48;96684.19;10494940;28;20120;-23
2022/05/11 09:58:29;;;;;;;2.63;2.40;;;;;;;18.08;58.41;96681.66;10455549;28;20768;-24
2022/05/11 10:03:30;;;;;;;2.85;2.65;;;;;;;18.07;58.70;96669.00;10476398;28;20028;-23
2022/05/11 10:08:34;;;;;;;2.72;2.53;;;;;;;18.07;58.38;96674.06;10489835;28;20463;-23
2022/05/11 10:13:52;;;;;;;3.03;2.75;;;;;;;18.09;58.66;96664.78;10471701;28;20040;-25
2022/05/11 10:21:50;;;;;;;3.40;3.10;;;;;;;18.32;63.56;96661.41;10481555;28;20037;-24
2022/05/11 10:24:37;;;;;;;2.42;2.22;;;;;;;18.34;59.44;96636.91;10484991;28;20036;-23
2022/05/11 10:30:03;;;;;;;4.75;2.40;;;;;;;18.29;59.34;96642.81;10496715;28;20040;-22
2022/05/11 10:35:15;;;;;;;2.70;2.50;;;;;;;18.19;58.37;96651.25;10473624;28;20040;-23
2022/05/11 10:40:39;;;;;;;2.75;2.55;;;;;;;18.14;58.48;96637.72;10453175;28;20044;-24
2022/05/11 10:46:05;;;;;;;2.58;2.30;;;;;;;18.10;58.52;96639.44;10452485;28;20143;-24
2022/05/11 10:51:16;;;;;;;3.90;2.55;;;;;;;18.09;58.54;96629.31;10453329;28;20078;-23
2022/05/11 10:56:23;;;;;;;3.15;2.22;;;;;;;18.09;60.55;96630.13;10452660;28;20049;-23
2022/05/11 11:01:31;;;;;;;13.10;3.55;;;;;;;18.16;61.75;96639.44;10452735;28;20107;-23
2022/05/11 11:12:28;;;;;;;5.88;2.60;;;;;;;18.18;62.11;96604.78;10464752;28;20033;-23
2022/05/11 11:17:29;;;;;;;7.75;3.58;;;;;;;18.32;64.16;96592.16;10452079;28;20106;-23
2022/05/11 11:23:07;;;;;;;8.70;2.85;;;;;;;18.44;59.77;96602.28;10483000;28;20040;-25
2022/05/11 11:28:11;;;;;;;7.15;3.22;;;;;;;18.37;60.83;96598.06;10452391;28;20040;-24
2022/05/11 11:33:20;;;;;;;5.45;3.13;;;;;;;18.27;60.00;96594.66;10451656;28;20464;-24
2022/05/11 11:38:41;;;;;;;3.92;3.00;;;;;;;18.16;58.84;96598.06;10451307;28;20045;-24
2022/05/11 11:43:57;;;;;;;6.30;3.20;;;;;;;18.13;59.01;96587.91;10451061;28;20025;-23
2022/05/11 11:49:16;;;;;;;3.00;2.05;;;;;;;18.16;58.77;96590.47;10451093;28;20041;-23
2022/05/11 11:54:28;;;;;;;4.47;2.30;;;;;;;18.17;59.04;96582.00;10461289;28;20686;-23
2022/05/11 11:59:29;;;;;;;5.55;2.55;;;;;;;18.17;58.93;96571.88;10490453;28;20067;-23
2022/05/11 12:04:40;;;;;;;4.22;3.20;;;;;;;18.22;58.74;96570.16;10461152;28;20079;-23
2022/05/11 12:15:33;;;;;;;6.45;3.88;;;;;;;18.45;63.16;96558.31;10480619;28;20170;-23
2022/05/11 12:20:42;;;;;;;4.32;2.55;;;;;;;18.49;60.56;96560.03;10438082;28;20044;-24
2022/05/11 12:25:52;;;;;;;4.65;2.75;;;;;;;18.25;58.59;96545.66;10456178;28;20037;-23
2022/05/11 12:30:53;;;;;;;4.88;3.50;;;;;;;18.25;58.73;96565.09;10450340;28;20466;-24
2022/05/11 12:35:54;;;;;;;5.40;3.00;;;;;;;18.16;58.87;96552.44;10473087;28;20052;-22
2022/05/11 12:40:55;;;;;;;6.35;3.95;;;;;;;18.14;58.70;96544.00;10483403;28;20051;-23
2022/05/11 12:45:59;;;;;;;5.30;4.20;;;;;;;18.20;59.19;96546.53;10490090;28;20037;-23
2022/05/11 12:51:09;;;;;;;12.90;5.00;;;;;;;18.16;60.04;96535.53;10489340;28;20111;-23
2022/05/11 12:56:20;;;;;;;16.33;4.55;;;;;;;18.14;60.03;96537.25;10476938;28;20036;-23
2022/05/11 13:01:24;;;;;;;6.15;3.47;;;;;;;18.08;60.40;96542.31;10474669;28;20090;-23
2022/05/11 13:06:35;;;;;;;4.07;3.17;;;;;;;18.02;60.50;96521.22;10487317;28;20033;-23
2022/05/11 13:11:37;;;;;;;5.32;3.20;;;;;;;18.31;61.26;96535.56;10472632;28;20047;-24
2022/05/11 13:16:53;;;;;;;4.07;3.10;;;;;;;18.48;61.98;96527.88;10489735;28;20067;-20
2022/05/11 13:21:56;;;;;;;5.63;3.05;;;;;;;18.35;60.54;96521.19;10482659;28;20056;-24
2022/05/11 13:26:57;;;;;;;4.22;2.95;;;;;;;18.38;60.66;96523.69;10472184;28;20037;-24
2022/05/11 13:32:08;;;;;;;5.30;3.05;;;;;;;18.45;60.60;96520.31;10482596;28;20506;-23
2022/05/11 13:37:24;;;;;;;3.72;2.42;;;;;;;18.52;61.13;96517.75;10477927;28;20032;-23
2022/05/11 13:42:27;;;;;;;5.77;2.67;;;;;;;18.57;60.86;96520.28;10472233;28;20075;-23
2022/05/11 13:53:28;;;;;;;6.22;3.33;;;;;;;18.71;60.41;96510.91;10455070;28;20122;-22
2022/05/11 13:58:28;;;;;;;6.18;2.70;;;;;;;18.75;60.05;96515.13;10455735;28;20033;-22
2022/05/11 14:03:33;;;;;;;6.57;3.40;;;;;;;18.83;60.87;96518.47;10454973;28;20036;-22
2022/05/11 14:08:34;;;;;;;5.13;2.80;;;;;;;18.89;60.24;96520.97;10455686;28;20028;-22
2022/05/11 14:13:34;;;;;;;5.15;3.58;;;;;;;18.91;61.56;96509.97;10469899;28;20066;-22
2022/05/11 14:18:40;;;;;;;5.00;3.17;;;;;;;19.03;59.98;96504.00;10478603;28;20041;-22
2022/05/11 14:23:41;;;;;;;7.27;3.67;;;;;;;19.10;59.82;96501.41;10472763;28;20045;-23
2022/05/11 14:28:42;;;;;;;4.47;3.15;;;;;;;19.17;59.42;96503.03;10455261;28;20037;-23
2022/05/11 14:33:44;;;;;;;4.40;3.03;;;;;;;19.02;59.56;96498.06;10454185;28;20215;-22
2022/05/11 14:38:44;;;;;;;4.20;2.95;;;;;;;18.88;59.28;96486.31;10455043;28;20075;-22
2022/05/11 14:43:44;;;;;;;4.40;3.25;;;;;;;18.83;59.29;96493.13;10454187;28;20212;-21
2022/05/11 14:48:47;;;;;;;4.27;3.50;;;;;;;18.79;59.02;96493.97;10469146;28;20032;-22
2022/05/11 14:53:48;;;;;;;3.75;3.03;;;;;;;18.73;59.36;96496.53;10485378;28;20037;-23
2022/05/11 15:04:19;;;;;;;3.05;2.72;;;;;;;18.68;60.00;96488.09;10481602;28;20087;-23
2022/05/11 15:09:20;;;;;;;4.90;3.58;;;;;;;18.81;64.14;96487.19;10481631;28;20094;-23
2022/05/11 15:14:26;;;;;;;4.67;2.83;;;;;;;18.77;59.69;96485.53;10476486;28;20078;-22
2022/05/11 15:19:28;;;;;;;6.03;3.22;;;;;;;18.68;59.44;96476.25;10477050;28;20313;-23
2022/05/11 15:24:29;;;;;;;4.53;2.60;;;;;;;18.62;58.89;96481.38;10470089;28;20519;-22
2022/05/11 15:29:29;;;;;;;3.95;2.40;;;;;;;18.63;59.18;96490.66;10452041;28;20048;-23
2022/05/11 15:34:32;;;;;;;2.80;2.50;;;;;;;18.60;58.85;96483.06;10452102;28;20033;-22
2022/05/11 15:39:32;;;;;;;4.13;2.53;;;;;;;18.59;58.99;96485.63;10465962;28;20047;-22
2022/05/11 15:44:33;;;;;;;32.47;6.00;;;;;;;18.67;60.32;96478.81;10492696;28;20135;-22
2022/05/11 15:49:35;;;;;;;6.35;3.38;;;;;;;18.63;59.17;96480.53;10470792;28;20068;-22
2022/05/11 15:54:35;;;;;;;6.65;3.08;;;;;;;18.61;59.04;96483.91;10453945;28;20040;-22
2022/05/11 15:59:35;;;;;;;5.63;3.07;;;;;;;18.59;58.76;96470.41;10450670;28;20060;-22
2022/05/11 16:04:38;;;;;;;11.27;5.65;;;;;;;18.68;60.74;96480.50;10449793;28;20045;-22
2022/05/11 16:09:39;;;;;;;9.13;3.70;;;;;;;18.70;60.62;96479.66;10450031;28;20563;-22
2022/05/11 16:14:40;;;;;;;5.88;2.75;;;;;;;18.02;60.25;96470.56;10476209;28;20062;-24
2022/05/11 16:19:52;;;;;;;6.90;2.70;;;;;;;18.23;63.47;96453.59;10464351;28;20033;-23
2022/05/11 16:24:53;;;;;;;10.45;4.20;;;;;;;18.82;64.36;96463.53;10467770;28;20116;-22
2022/05/11 16:29:54;;;;;;;4.13;3.17;;;;;;;17.67;61.64;96474.84;10450425;28;20033;-23
2022/05/11 16:34:55;;;;;;;5.72;3.25;;;;;;;18.41;63.03;96468.78;10468391;28;20032;-22
2022/05/11 16:39:56;;;;;;;8.57;4.00;;;;;;;18.50;61.34;96465.38;10472396;28;20036;-23
2022/05/11 16:44:58;;;;;;;6.45;3.72;;;;;;;18.63;64.50;96462.78;10473352;28;20074;-22
2022/05/11 16:49:58;;;;;;;6.85;3.53;;;;;;;18.72;62.11;96449.19;10464049;28;20036;-23
2022/05/11 16:55:00;;;;;;;8.83;3.23;;;;;;;18.80;62.63;96470.28;10445535;28;20123;-22
2022/05/11 17:00:00;;;;;;;7.78;3.58;;;;;;;18.77;62.75;96457.63;10445561;28;20421;-23
2022/05/11 17:05:02;;;;;;;5.32;3.33;;;;;;;18.80;63.22;96466.06;10444815;28;20306;-22
2022/05/11 17:10:04;;;;;;;4.60;3.20;;;;;;;18.78;63.42;96447.50;10444886;28;20052;-22
2022/05/11 17:15:05;;;;;;;6.18;2.75;;;;;;;18.89;62.98;96462.63;10446892;28;20044;-23
2022/05/11 17:20:08;;;;;;;3.38;3.05;;;;;;;18.83;62.81;96470.28;10446384;28;20037;-22
2022/05/11 17:25:11;;;;;;;5.40;2.83;;;;;;;18.79;61.46;96469.47;10481665;28;20032;-23
2022/05/11 17:30:12;;;;;;;4.57;3.05;;;;;;;18.73;60.13;96478.78;10493684;28;20032;-23
2022/05/11 17:35:14;;;;;;;3.00;2.70;;;;;;;18.53;59.16;96480.56;10460626;28;20040;-23
2022/05/11 17:40:15;;;;;;;2.92;2.60;;;;;;;18.72;59.06;96474.56;10459674;28;20041;-22
2022/05/11 17:45:18;;;;;;;3.95;2.53;;;;;;;18.45;57.63;96479.75;10487141;28;20116;-23
2022/05/11 17:50:20;;;;;;;2.97;2.72;;;;;;;18.47;57.78;96481.44;10473648;28;20056;-22
2022/05/11 17:55:23;;;;;;;2.50;2.30;;;;;;;18.38;57.52;96478.06;10459934;28;20557;-23
2022/05/11 18:00:30;;;;;;;3.63;2.55;;;;;;;18.44;58.97;96495.81;10488034;28;20037;-23
2022/05/11 18:05:30;;;;;;;6.20;2.78;;;;;;;18.69;60.49;96497.41;10474460;28;20033;-23
2022/05/11 18:10:31;;;;;;;4.60;2.75;;;;;;;18.66;61.40;96493.19;10468502;28;20036;-23
2022/05/11 18:15:31;;;;;;;8.98;3.78;;;;;;;18.80;62.77;96505.78;10481409;28;20618;-23
2022/05/11 18:20:39;;;;;;;7.57;3.00;;;;;;;18.89;63.23;96508.28;10450451;28;20063;-23
2022/05/11 18:25:40;;;;;;;5.28;3.05;;;;;;;18.90;63.57;96515.03;10461671;28;20044;-24
2022/05/11 18:30:41;;;;;;;6.70;2.65;;;;;;;18.79;62.00;96510.03;10449819;28;20052;-22
2022/05/11 18:35:43;;;;;;;10.60;2.88;;;;;;;18.64;60.21;96524.47;10449774;28;20041;-22
2022/05/11 18:40:43;;;;;;;6.60;3.60;;;;;;;18.80;63.21;96526.94;10449422;28;20487;-22
2022/05/11 18:45:43;;;;;;;2.90;2.07;;;;;;;18.79;58.53;96522.72;10448915;28;20035;-22
2022/05/11 18:50:44;;;;;;;2.97;2.45;;;;;;;18.63;59.17;96533.78;10448137;28;20295;-22
2022/05/11 18:55:44;;;;;;;2.83;2.25;;;;;;;18.54;58.64;96532.94;10448464;28;20094;-23
2022/05/11 19:00:45;;;;;;;5.80;2.42;;;;;;;18.46;58.26;96529.59;10454499;28;20070;-23
2022/05/11 19:05:45;;;;;;;4.93;2.10;;;;;;;18.38;58.44;96536.38;10456985;28;20494;-22
2022/05/11 19:10:46;;;;;;;3.13;2.50;;;;;;;18.41;58.45;96546.53;10449151;28;20048;-24
2022/05/11 19:15:47;;;;;;;3.60;2.25;;;;;;;18.42;58.48;96548.22;10459882;28;20510;-23
2022/05/11 19:20:47;;;;;;;2.80;2.03;;;;;;;18.64;61.26;96557.41;10465896;28;20059;-23
2022/05/11 19:25:54;;;;;;;3.42;1.85;;;;;;;18.75;58.18;96558.25;10472080;28;20060;-22
2022/05/11 19:30:58;;;;;;;3.50;2.45;;;;;;;18.60;58.28;96568.44;10450567;28;20098;-22
2022/05/11 19:35:59;;;;;;;3.17;2.65;;;;;;;18.46;58.17;96565.94;10447456;28;20608;-23
2022/05/11 19:40:59;;;;;;;2.25;1.98;;;;;;;18.40;57.96;96571.00;10474136;28;20032;-23
2022/05/11 19:46:00;;;;;;;2.65;1.95;;;;;;;18.39;58.14;96571.88;10468666;28;20473;-23
2022/05/11 19:51:01;;;;;;;2.63;2.30;;;;;;;18.37;58.10;96572.72;10467523;28;20064;-24
2022/05/11 19:56:02;;;;;;;3.03;2.08;;;;;;;18.36;58.08;96573.56;10456698;28;20064;-23
2022/05/11 20:01:05;;;;;;;3.75;1.70;;;;;;;18.35;58.08;96574.41;10465956;28;20086;-23
2022/05/11 20:06:10;;;;;;;4.18;2.30;;;;;;;18.63;59.54;96573.47;10462243;28;20212;-23
2022/05/11 20:11:11;;;;;;;2.55;1.88;;;;;;;18.69;57.33;96578.53;10466090;28;20126;-23
2022/05/11 20:16:14;;;;;;;4.53;2.28;;;;;;;18.57;58.10;96578.59;10455809;28;20507;-23
2022/05/11 20:21:15;;;;;;;4.30;1.85;;;;;;;18.45;57.69;96581.13;10455820;28;20509;-24
2022/05/11 20:26:17;;;;;;;2.45;1.90;;;;;;;18.41;57.81;96584.53;10470757;28;20388;-22
2022/05/11 20:36:37;;;;;;;2.63;1.58;;;;;;;18.42;57.86;96581.16;10467564;28;20029;-23
2022/05/11 20:41:37;;;;;;;2.07;1.80;;;;;;;18.44;57.54;96582.00;10468182;28;20529;-22
2022/05/11 20:46:38;;;;;;;2.78;1.88;;;;;;;18.46;57.87;96577.75;10445875;28;20349;-22
2022/05/11 20:51:39;;;;;;;5.63;2.60;;;;;;;18.64;59.84;96580.25;10458120;28;20032;-24
2022/05/11 20:56:39;;;;;;;3.20;2.38;;;;;;;18.77;60.13;96572.59;10461557;28;20407;-23
2022/05/11 21:01:40;;;;;;;3.03;1.88;;;;;;;18.64;57.84;96575.16;10467695;28;20095;-22
2022/05/11 21:06:41;;;;;;;2.50;2.13;;;;;;;18.57;57.61;96573.53;10462807;28;20040;-23
2022/05/11 21:11:42;;;;;;;3.33;1.85;;;;;;;18.52;58.06;96570.16;10481299;28;20295;-23
2022/05/11 21:16:43;;;;;;;2.03;1.70;;;;;;;18.48;57.80;96563.38;10504297;28;20124;-23
2022/05/11 21:21:43;;;;;;;2.70;1.87;;;;;;;18.46;58.11;96565.94;10476484;28;20025;-23
2022/05/11 21:26:43;;;;;;;3.80;2.37;;;;;;;18.44;57.90;96551.56;10480483;28;20025;-22
2022/05/11 21:31:44;;;;;;;2.17;1.90;;;;;;;18.45;58.72;96554.13;10503808;28;20035;-23
2022/05/11 21:36:44;;;;;;;5.65;2.88;;;;;;;18.42;58.24;96548.22;10465386;28;20044;-23
2022/05/11 21:41:45;;;;;;;3.20;2.10;;;;;;;18.65;60.41;96561.63;10489932;28;20066;-22
2022/05/11 21:46:51;;;;;;;2.55;1.80;;;;;;;18.78;60.62;96564.16;10498744;28;20344;-22
2022/05/11 21:51:52;;;;;;;3.88;2.00;;;;;;;18.65;58.19;96566.72;10462828;28;20076;-22
2022/05/11 21:56:52;;;;;;;1.85;1.65;;;;;;;18.54;58.11;96568.44;10461537;28;20040;-24
2022/05/11 22:01:53;;;;;;;3.97;1.90;;;;;;;18.49;57.86;96580.31;10476737;28;20082;-24
2022/05/11 22:06:53;;;;;;;5.23;2.27;;;;;;;18.50;58.33;96589.59;10459031;28;20040;-23
2022/05/11 22:11:54;;;;;;;1.80;1.70;;;;;;;18.46;58.21;96595.50;10455303;28;20041;-23
2022/05/11 22:16:54;;;;;;;2.00;1.60;;;;;;;18.44;58.20;96602.28;10455318;28;20040;-23
2022/05/11 22:21:55;;;;;;;5.15;2.67;;;;;;;18.43;58.13;96601.41;10466632;28;20029;-23
2022/05/11 22:26:55;;;;;;;2.65;2.17;;;;;;;18.44;58.19;96602.28;10461423;28;20060;-23
2022/05/11 22:31:56;;;;;;;2.30;1.80;;;;;;;18.56;61.24;96607.31;10453995;28;20037;-23
2022/05/11 22:36:56;;;;;;;3.07;2.20;;;;;;;18.76;60.91;96610.66;10481832;28;20037;-23
2022/05/11 22:41:56;;;;;;;2.40;2.05;;;;;;;18.72;58.94;96608.97;10461344;28;20310;-22
2022/05/11 22:46:57;;;;;;;3.10;1.80;;;;;;;18.57;58.00;96624.22;10454018;28;20028;-24
2022/05/11 22:51:57;;;;;;;2.70;1.83;;;;;;;18.44;57.72;96615.81;10494256;28;20522;-23
2022/05/11 22:56:58;;;;;;;2.53;1.98;;;;;;;18.47;57.89;96625.06;10459415;28;20033;-23
2022/05/11 23:01:58;;;;;;;1.50;1.40;;;;;;;18.44;58.19;96637.75;10485696;28;20043;-23
2022/05/11 23:06:58;;;;;;;1.95;1.75;;;;;;;18.43;57.90;96641.97;10453345;28;20033;-23
2022/05/11 23:11:59;;;;;;;3.13;1.90;;;;;;;18.40;57.89;96649.59;10453006;28;20040;-22
2022/05/11 23:16:59;;;;;;;2.03;1.70;;;;;;;18.40;57.95;96646.22;10452026;28;20052;-23
2022/05/11 23:22:00;;;;;;;1.75;1.65;;;;;;;18.33;58.04;96627.63;10465450;28;20036;-23
2022/05/11 23:27:01;;;;;;;3.23;1.80;;;;;;;18.56;59.41;96638.59;10458654;28;20053;-24
2022/05/11 23:32:01;;;;;;;4.40;2.25;;;;;;;18.78;60.11;96647.84;10457800;28;20306;-23
2022/05/11 23:37:02;;;;;;;1.80;1.70;;;;;;;18.67;58.30;96657.16;10493426;28;20222;-24
2022/05/11 23:42:03;;;;;;;3.10;1.70;;;;;;;18.57;57.95;96672.41;10458014;28;20044;-22
2022/05/11 23:47:05;;;;;;;2.10;1.88;;;;;;;18.51;58.04;96672.41;10451718;28;20090;-24
2022/05/11 23:52:11;;;;;;;2.38;1.92;;;;;;;18.46;58.10;96674.94;10490674;28;20449;-24
2022/05/11 23:57:13;;;;;;;2.22;2.03;;;;;;;18.44;58.11;96678.31;10456345;28;20112;-23
